createdAt,value
2023-01-29T00:01:10.136Z,24.58
2023-01-29T00:03:39.046Z,24.76
2023-01-29T00:06:05.517Z,25.50
2023-01-29T00:08:32.146Z,25.23
2023-01-29T00:10:58.892Z,25.14
2023-01-29T00:13:25.292Z,24.37
2023-01-29T00:15:51.780Z,25.15
2023-01-29T00:18:18.158Z,24.04
2023-01-29T00:20:45.885Z,23.95
2023-01-29T00:23:12.260Z,23.81
2023-01-29T00:25:38.645Z,24.50
2023-01-29T00:28:05.018Z,24.27
2023-01-29T00:30:31.397Z,24.13
2023-01-29T00:32:57.735Z,23.98
2023-01-29T00:35:24.120Z,24.25
2023-01-29T00:37:50.757Z,24.24
2023-01-29T00:40:17.477Z,24.43
2023-01-29T00:42:44.009Z,24.25
2023-01-29T00:45:10.369Z,24.45
2023-01-29T00:47:39.834Z,24.22
2023-01-29T00:50:08.662Z,24.47
2023-01-29T00:52:35.154Z,23.53
2023-01-29T00:55:01.509Z,24.58
2023-01-29T00:57:27.998Z,25.36
2023-01-29T00:59:57.456Z,25.20
2023-01-29T01:02:23.972Z,24.56
2023-01-29T01:04:50.404Z,24.92
2023-01-29T01:07:16.887Z,24.58
2023-01-29T01:09:43.499Z,23.98
2023-01-29T01:12:09.853Z,24.50
2023-01-29T01:14:37.600Z,24.35
2023-01-29T01:17:04.063Z,23.77
2023-01-29T01:19:30.422Z,24.18
2023-01-29T01:21:56.775Z,24.95
2023-01-29T01:24:23.169Z,24.46
2023-01-29T01:26:49.579Z,24.50
2023-01-29T01:29:15.977Z,23.97
2023-01-29T01:31:42.368Z,25.30
2023-01-29T01:34:12.898Z,25.43
2023-01-29T01:36:39.269Z,24.47
2023-01-29T01:39:05.607Z,25.65
2023-01-29T01:41:31.957Z,25.25
2023-01-29T01:43:58.380Z,25.11
2023-01-29T01:46:24.758Z,24.98
2023-01-29T01:48:51.097Z,24.84
2023-01-29T01:51:17.483Z,26.60
2023-01-29T01:53:44.263Z,25.00
2023-01-29T01:56:10.872Z,25.51
2023-01-29T01:58:37.607Z,25.25
2023-01-29T02:01:11.155Z,24.94
2023-01-29T02:03:37.525Z,24.54
2023-01-29T02:06:06.173Z,24.58
2023-01-29T02:08:32.639Z,24.55
2023-01-29T02:10:59.111Z,24.62
2023-01-29T02:13:25.482Z,24.78
2023-01-29T02:15:51.862Z,24.58
2023-01-29T02:18:18.282Z,24.60
2023-01-29T02:20:45.653Z,25.54
2023-01-29T02:23:12.035Z,24.95
2023-01-29T02:25:38.398Z,24.66
2023-01-29T02:28:04.829Z,24.87
2023-01-29T02:30:31.177Z,25.03
2023-01-29T02:32:57.899Z,24.76
2023-01-29T02:35:24.294Z,23.95
2023-01-29T02:37:50.789Z,24.63
2023-01-29T02:40:17.491Z,25.21
2023-01-29T02:42:44.096Z,24.59
2023-01-29T02:45:10.486Z,25.16
2023-01-29T02:47:37.084Z,24.68
2023-01-29T02:50:03.826Z,24.53
2023-01-29T02:52:30.443Z,24.26
2023-01-29T02:54:58.977Z,24.31
2023-01-29T02:57:28.063Z,22.96
2023-01-29T02:59:54.505Z,23.64
2023-01-29T03:02:20.954Z,23.86
2023-01-29T03:04:47.420Z,23.90
2023-01-29T03:07:13.896Z,24.57
2023-01-29T03:09:40.372Z,23.49
2023-01-29T03:12:07.204Z,24.07
2023-01-29T03:14:33.562Z,23.14
2023-01-29T03:16:59.968Z,23.78
2023-01-29T03:19:26.322Z,24.22
2023-01-29T03:21:53.289Z,23.98
2023-01-29T03:24:20.777Z,23.97
2023-01-29T03:26:47.568Z,25.18
2023-01-29T03:29:14.946Z,24.93
2023-01-29T03:31:43.919Z,24.08
2023-01-29T03:34:10.348Z,24.51
2023-01-29T03:36:37.851Z,24.03
2023-01-29T03:39:07.235Z,24.10
2023-01-29T03:41:33.629Z,24.49
2023-01-29T03:44:00.450Z,23.87
2023-01-29T03:46:26.834Z,24.52
2023-01-29T03:48:53.282Z,25.22
2023-01-29T03:51:20.219Z,24.72
2023-01-29T03:53:46.700Z,24.62
2023-01-29T03:56:13.082Z,24.30
2023-01-29T03:58:39.479Z,24.75
2023-01-29T04:01:07.106Z,23.72
2023-01-29T04:03:33.977Z,23.72
2023-01-29T04:06:00.356Z,24.35
2023-01-29T04:08:26.974Z,23.57
2023-01-29T04:10:53.479Z,25.07
2023-01-29T04:13:19.993Z,24.66
2023-01-29T04:15:46.380Z,24.49
2023-01-29T04:18:13.866Z,24.86
2023-01-29T04:20:42.317Z,24.35
2023-01-29T04:23:08.886Z,24.45
2023-01-29T04:25:35.259Z,24.11
2023-01-29T04:28:01.751Z,24.56
2023-01-29T04:30:28.546Z,24.15
2023-01-29T04:32:54.922Z,24.27
2023-01-29T04:35:21.295Z,24.45
2023-01-29T04:37:47.807Z,24.71
2023-01-29T04:40:14.424Z,23.81
2023-01-29T04:42:40.987Z,24.01
2023-01-29T04:45:07.382Z,23.15
2023-01-29T04:47:41.747Z,24.11
2023-01-29T04:50:08.132Z,23.03
2023-01-29T04:52:34.585Z,22.63
2023-01-29T04:55:00.948Z,22.81
2023-01-29T04:57:27.721Z,22.56
2023-01-29T04:59:54.228Z,22.86
2023-01-29T05:02:20.578Z,23.27
2023-01-29T05:04:46.937Z,22.69
2023-01-29T05:07:13.334Z,22.74
2023-01-29T05:09:39.717Z,22.30
2023-01-29T05:12:06.148Z,22.48
2023-01-29T05:14:32.511Z,22.78
2023-01-29T05:16:58.866Z,22.34
2023-01-29T05:19:25.571Z,23.61
2023-01-29T05:21:51.931Z,23.14
2023-01-29T05:24:18.352Z,23.47
2023-01-29T05:26:44.740Z,23.57
2023-01-29T05:29:11.084Z,22.89
2023-01-29T05:31:40.157Z,22.64
2023-01-29T05:34:06.522Z,22.61
2023-01-29T05:36:33.303Z,23.34
2023-01-29T05:38:59.674Z,23.46
2023-01-29T05:41:26.461Z,24.04
2023-01-29T05:43:52.813Z,23.64
2023-01-29T05:46:19.205Z,23.96
2023-01-29T05:48:46.116Z,24.13
2023-01-29T05:51:12.558Z,23.99
2023-01-29T05:53:38.927Z,23.77
2023-01-29T05:56:06.519Z,25.05
2023-01-29T05:58:32.862Z,24.78
2023-01-29T06:01:02.314Z,24.34
2023-01-29T06:03:28.666Z,24.65
2023-01-29T06:05:56.864Z,24.44
2023-01-29T06:08:23.248Z,23.94
2023-01-29T06:10:49.598Z,23.94
2023-01-29T06:13:15.941Z,23.32
2023-01-29T06:15:42.325Z,24.31
2023-01-29T06:18:08.704Z,24.50
2023-01-29T06:20:35.082Z,23.86
2023-01-29T06:23:01.450Z,23.60
2023-01-29T06:25:27.827Z,24.75
2023-01-29T06:27:54.305Z,24.85
2023-01-29T06:30:20.702Z,24.54
2023-01-29T06:32:47.069Z,24.92
2023-01-29T06:35:13.760Z,24.94
2023-01-29T06:37:40.736Z,24.59
2023-01-29T06:40:08.122Z,23.75
2023-01-29T06:42:34.720Z,23.99
2023-01-29T06:45:01.085Z,24.20
2023-01-29T06:47:27.432Z,24.07
2023-01-29T06:49:54.888Z,24.82
2023-01-29T06:52:21.318Z,24.09
2023-01-29T06:54:47.666Z,24.12
2023-01-29T06:57:14.033Z,24.40
2023-01-29T06:59:40.575Z,24.81
2023-01-29T07:02:07.073Z,24.81
2023-01-29T07:04:33.458Z,24.46
2023-01-29T07:06:59.871Z,24.96
2023-01-29T07:09:27.319Z,25.73
2023-01-29T07:11:53.892Z,25.79
2023-01-29T07:14:22.289Z,25.19
2023-01-29T07:16:49.292Z,25.40
2023-01-29T07:19:15.630Z,27.26
2023-01-29T07:21:42.112Z,26.68
2023-01-29T07:24:08.531Z,26.39
2023-01-29T07:26:35.855Z,25.83
2023-01-29T07:29:02.239Z,24.97
2023-01-29T07:31:28.901Z,25.64
2023-01-29T07:33:55.340Z,25.57
2023-01-29T07:36:21.731Z,26.23
2023-01-29T07:38:48.304Z,26.06
2023-01-29T07:41:14.856Z,25.87
2023-01-29T07:43:41.260Z,26.41
2023-01-29T07:46:07.885Z,25.64
2023-01-29T07:48:36.458Z,26.22
2023-01-29T07:51:02.859Z,26.08
2023-01-29T07:53:29.422Z,26.18
2023-01-29T07:55:56.810Z,25.78
2023-01-29T07:58:23.210Z,26.02
2023-01-29T08:00:49.575Z,25.43
2023-01-29T08:03:15.961Z,25.09
2023-01-29T08:05:44.352Z,24.96
2023-01-29T08:08:10.861Z,25.46
2023-01-29T08:10:39.742Z,25.31
2023-01-29T08:13:06.161Z,25.22
2023-01-29T08:15:32.522Z,26.42
2023-01-29T08:17:58.961Z,26.79
2023-01-29T08:20:25.391Z,25.83
2023-01-29T08:22:51.788Z,25.90
2023-01-29T08:25:18.139Z,26.87
2023-01-29T08:27:44.772Z,26.14
2023-01-29T08:30:11.130Z,26.46
2023-01-29T08:32:37.614Z,25.30
2023-01-29T08:35:03.980Z,26.13
2023-01-29T08:37:31.352Z,26.25
2023-01-29T08:39:57.850Z,26.26
2023-01-29T08:42:24.318Z,26.07
2023-01-29T08:44:50.753Z,25.09
2023-01-29T08:47:17.122Z,25.47
2023-01-29T08:49:44.482Z,25.72
2023-01-29T08:52:10.889Z,26.32
2023-01-29T08:54:37.318Z,26.18
2023-01-29T08:57:03.827Z,26.01
2023-01-29T08:59:30.231Z,26.01
2023-01-29T09:01:56.626Z,26.04
2023-01-29T09:04:23.332Z,25.86
2023-01-29T09:06:51.981Z,26.09
2023-01-29T09:09:20.693Z,25.88
2023-01-29T09:11:47.251Z,25.76
2023-01-29T09:14:13.682Z,25.83
2023-01-29T09:16:40.043Z,25.97
2023-01-29T09:19:06.417Z,25.89
2023-01-29T09:21:32.761Z,26.43
2023-01-29T09:23:59.159Z,25.67
2023-01-29T09:26:26.177Z,25.61
2023-01-29T09:28:52.581Z,25.60
2023-01-29T09:31:19.127Z,24.91
2023-01-29T09:33:45.506Z,25.08
2023-01-29T09:36:13.934Z,26.04
2023-01-29T09:38:40.352Z,25.50
2023-01-29T09:41:06.722Z,26.03
2023-01-29T09:43:33.132Z,26.07
2023-01-29T09:45:59.589Z,26.29
2023-01-29T09:48:26.239Z,26.12
2023-01-29T09:50:52.713Z,26.41
2023-01-29T09:53:20.130Z,25.94
2023-01-29T09:55:47.166Z,25.33
2023-01-29T09:58:13.558Z,25.88
2023-01-29T10:00:40.038Z,26.51
2023-01-29T10:05:33.844Z,25.96
2023-01-29T10:08:00.218Z,26.31
2023-01-29T10:10:26.633Z,24.95
2023-01-29T10:12:53.009Z,24.93
2023-01-29T10:15:19.585Z,25.60
2023-01-29T10:17:46.003Z,24.60
2023-01-29T10:20:12.366Z,24.96
2023-01-29T10:22:38.748Z,24.25
2023-01-29T10:25:05.136Z,24.21
2023-01-29T10:27:32.048Z,25.29
2023-01-29T10:29:58.483Z,24.95
2023-01-29T10:32:24.866Z,25.66
2023-01-29T10:34:53.283Z,24.87
2023-01-29T10:37:19.690Z,24.10
2023-01-29T10:39:48.396Z,24.38
2023-01-29T10:42:14.776Z,24.66
2023-01-29T10:44:41.121Z,25.47
2023-01-29T10:47:07.760Z,25.52
2023-01-29T10:49:34.187Z,25.85
2023-01-29T10:52:00.687Z,25.62
2023-01-29T10:54:29.103Z,25.60
2023-01-29T10:56:55.574Z,25.43
2023-01-29T10:59:24.911Z,25.51
2023-01-29T11:01:51.626Z,25.62
2023-01-29T11:04:18.266Z,25.79
2023-01-29T11:06:44.656Z,24.78
2023-01-29T11:09:11.035Z,25.26
2023-01-29T11:11:37.625Z,25.08
2023-01-29T11:14:04.039Z,25.52
2023-01-29T11:16:30.389Z,25.48
2023-01-29T11:18:56.885Z,25.62
2023-01-29T11:21:23.481Z,24.28
2023-01-29T11:23:51.932Z,25.35
2023-01-29T11:26:18.331Z,25.35
2023-01-29T11:28:44.713Z,25.39
2023-01-29T11:31:11.199Z,25.01
2023-01-29T11:33:37.606Z,25.76
2023-01-29T11:36:06.294Z,25.32
2023-01-29T11:38:32.655Z,25.16
2023-01-29T11:40:58.991Z,25.59
2023-01-29T11:43:25.672Z,26.09
2023-01-29T11:45:52.140Z,25.85
2023-01-29T11:48:18.496Z,27.15
2023-01-29T11:50:44.879Z,25.60
2023-01-29T11:53:11.341Z,25.87
2023-01-29T11:55:49.703Z,25.53
2023-01-29T11:58:16.879Z,25.29
2023-01-29T12:00:43.388Z,24.68
2023-01-29T12:03:09.738Z,24.85
2023-01-29T12:05:36.152Z,24.86
2023-01-29T12:08:02.523Z,25.66
2023-01-29T12:10:30.120Z,25.37
2023-01-29T12:12:57.657Z,25.10
2023-01-29T12:15:24.023Z,25.10
2023-01-29T12:17:50.411Z,25.74
2023-01-29T12:20:16.964Z,25.67
2023-01-29T12:22:43.523Z,25.53
2023-01-29T12:25:09.887Z,25.90
2023-01-29T12:27:36.248Z,25.26
2023-01-29T12:30:02.645Z,25.06
2023-01-29T12:32:29.047Z,25.00
2023-01-29T12:34:55.456Z,25.02
2023-01-29T12:37:22.151Z,26.07
2023-01-29T12:39:48.539Z,25.92
2023-01-29T12:42:15.695Z,26.25
2023-01-29T12:44:42.143Z,26.11
2023-01-29T12:47:08.541Z,25.52
2023-01-29T12:49:35.293Z,25.68
2023-01-29T12:52:01.655Z,26.26
2023-01-29T16:57:58.026Z,28.47
2023-01-29T17:00:27.282Z,28.09
2023-01-29T17:02:53.809Z,27.57
2023-01-29T17:05:22.472Z,28.59
2023-01-29T17:07:49.107Z,29.35
2023-01-29T17:15:57.160Z,29.57
2023-01-29T17:18:27.189Z,29.69
2023-01-29T17:20:53.687Z,29.33
2023-01-29T17:23:33.550Z,28.22
2023-01-29T17:26:00.280Z,27.70
2023-01-29T17:28:29.427Z,27.59
2023-01-29T17:31:10.832Z,28.38
2023-01-29T18:36:15.979Z,26.23
2023-01-29T18:38:46.533Z,26.67
2023-01-29T18:41:13.247Z,26.56
2023-01-29T18:46:38.176Z,31.06
2023-01-29T18:49:15.868Z,32.15
2023-01-29T18:51:43.255Z,32.22
2023-01-29T18:54:18.349Z,34.66
2023-01-29T18:57:13.360Z,38.66
2023-01-29T18:59:33.124Z,36.66
2023-01-29T19:01:59.582Z,39.08
2023-01-29T19:04:26.043Z,40.74
2023-01-29T19:06:52.433Z,37.32
2023-01-29T19:09:18.958Z,34.80
2023-01-29T19:11:45.354Z,34.97
2023-01-29T19:14:11.714Z,37.18
2023-01-29T19:16:39.094Z,40.79
2023-01-29T19:19:05.504Z,40.33
2023-01-29T19:21:32.349Z,34.59
2023-01-29T19:23:58.728Z,35.27
2023-01-29T19:26:25.187Z,33.32
2023-01-29T19:28:52.016Z,31.56
2023-01-29T19:31:18.891Z,31.86
2023-01-29T19:33:45.292Z,32.84
2023-01-29T19:36:12.021Z,32.65
2023-01-29T19:38:38.758Z,35.33
2023-01-29T19:41:05.778Z,35.78
2023-01-29T19:43:39.560Z,35.83
2023-01-29T19:46:05.940Z,36.88
2023-01-29T19:48:32.412Z,39.49
2023-01-29T19:50:58.852Z,41.49
2023-01-29T19:53:25.809Z,41.14
2023-01-29T19:55:52.269Z,39.73
2023-01-29T19:58:18.795Z,38.19
2023-01-29T20:00:47.814Z,37.87
2023-01-29T20:03:14.552Z,41.21
2023-01-29T20:05:40.926Z,43.07
2023-01-29T20:08:08.341Z,40.33
2023-01-29T20:10:35.278Z,39.46
2023-01-29T20:13:02.730Z,40.09
2023-01-29T20:15:29.423Z,40.48
2023-01-29T20:17:55.936Z,40.41
2023-01-29T20:20:23.371Z,40.64
2023-01-29T20:22:55.039Z,38.88
2023-01-29T20:25:23.735Z,38.25
2023-01-29T20:27:50.231Z,38.56
2023-01-29T20:30:17.155Z,38.73
2023-01-29T20:32:43.751Z,37.97
2023-01-29T20:35:11.221Z,38.92
2023-01-29T20:37:37.630Z,39.74
2023-01-29T20:40:04.245Z,38.14
2023-01-29T20:42:30.902Z,35.79
2023-01-29T20:44:57.239Z,35.60
2023-01-29T20:47:23.707Z,37.08
2023-01-29T20:49:50.294Z,37.46
2023-01-29T20:52:16.643Z,36.31
2023-01-29T20:54:43.428Z,35.81
2023-01-29T20:57:10.038Z,35.51
2023-01-29T20:59:36.436Z,36.10
2023-01-29T21:02:03.236Z,35.03
2023-01-29T21:04:29.704Z,34.98
2023-01-29T21:06:57.115Z,35.46
2023-01-29T21:09:25.575Z,34.09
2023-01-29T21:11:51.967Z,33.06
2023-01-29T21:14:18.519Z,33.31
2023-01-29T21:16:45.075Z,32.97
2023-01-29T21:19:11.916Z,32.60
2023-01-29T21:21:38.372Z,33.24
2023-01-29T21:24:04.736Z,33.54
2023-01-29T21:26:31.583Z,33.54
2023-01-29T21:29:00.056Z,34.95
2023-01-29T21:31:26.502Z,34.82
2023-01-29T21:33:52.872Z,34.74
2023-01-29T21:36:19.274Z,33.19
2023-01-29T21:38:48.093Z,33.66
2023-01-29T21:41:15.565Z,34.10
2023-01-29T21:43:41.923Z,33.64
2023-01-29T21:46:09.419Z,34.03
2023-01-29T21:48:35.885Z,33.97
2023-01-29T21:51:02.290Z,34.24
2023-01-29T21:53:28.718Z,34.34
2023-01-29T21:55:55.267Z,33.94
2023-01-29T21:58:22.209Z,33.05
2023-01-29T22:00:48.762Z,34.43
2023-01-29T22:03:15.282Z,34.23
2023-01-29T22:05:41.686Z,34.43
2023-01-29T22:08:08.040Z,34.61
2023-01-29T22:10:34.659Z,35.17
2023-01-29T22:13:01.172Z,36.31
2023-01-29T22:15:27.669Z,36.54
2023-01-29T22:17:54.023Z,36.16
2023-01-29T22:20:20.626Z,34.17
2023-01-29T22:22:47.115Z,34.60
2023-01-29T22:25:13.514Z,34.92
2023-01-29T22:27:39.978Z,34.65
2023-01-29T22:30:06.376Z,35.50
2023-01-29T22:32:33.327Z,34.48
2023-01-29T22:34:59.814Z,33.24
2023-01-29T22:37:26.333Z,32.15
2023-01-29T22:39:52.725Z,32.06
2023-01-29T22:42:19.297Z,31.75
2023-01-29T22:44:45.738Z,31.72
2023-01-29T22:47:12.183Z,32.51
2023-01-29T22:49:38.600Z,32.24
2023-01-29T22:52:05.179Z,33.29
2023-01-29T22:54:31.657Z,33.42
2023-01-29T22:56:58.081Z,33.82
2023-01-29T22:59:25.126Z,33.02
2023-01-29T23:01:51.761Z,33.39
2023-01-29T23:04:18.184Z,33.48
2023-01-29T23:06:44.704Z,31.73
2023-01-29T23:09:11.284Z,32.32
2023-01-29T23:11:37.794Z,32.35
2023-01-29T23:14:04.225Z,32.33
2023-01-29T23:16:30.960Z,32.53
2023-01-29T23:18:57.560Z,31.68
2023-01-29T23:21:24.992Z,31.97
2023-01-29T23:23:51.420Z,31.83
2023-01-29T23:26:18.200Z,31.63
2023-01-29T23:28:44.685Z,30.71
2023-01-29T23:31:11.140Z,31.10
2023-01-29T23:33:37.514Z,30.62
2023-01-29T23:36:03.899Z,29.97
2023-01-29T23:38:30.290Z,30.74
2023-01-29T23:40:56.665Z,32.57
2023-01-29T23:43:24.065Z,33.13
2023-01-29T23:45:51.597Z,34.28
2023-01-29T23:48:18.036Z,32.93
2023-01-29T23:50:44.436Z,32.20
2023-01-29T23:53:10.843Z,32.08
2023-01-29T23:55:37.463Z,30.87
2023-01-29T23:58:03.844Z,30.44
